| time (UTC) | temp F | wind direction | speed knots | gust knots | rain 1hr in | rain 24hr in | rain mn in | humidity % | barometer mb |
| 20260906100017 | 62 | 25 | 0.0 | 0.0 | 0.00 | 0.00 | 0.00 | 90 | 1015.1 |
| 20260906094547 | 63 | 25 | 0.0 | 0.0 | 0.00 | 0.00 | 0.00 | 89 | 1014.9 |
| 20260906093020 | 63 | 343 | 0.0 | 0.0 | 0.00 | 0.00 | 0.00 | 89 | 1014.7 |
| 20260906091535 | 64 | 316 | 0.0 | 0.0 | 0.00 | 0.00 | 0.00 | 89 | 1014.7 |
| 20260906084543 | 65 | 360 | 0.0 | 0.0 | 0.00 | 0.00 | 0.00 | 88 | 1014.9 |
| 20260906083047 | 65 | 23 | 0.9 | 0.0 | 0.00 | 0.00 | 0.00 | 87 | 1014.7 |
| 20260906081514 | 65 | 13 | 0.9 | 0.0 | 0.00 | 0.00 | 0.00 | 88 | 1014.6 |
| 20260906080041 | 66 | 355 | 0.9 | 0.0 | 0.00 | 0.00 | 0.00 | 89 | 1014.7 |
| 20260906074506 | 66 | 5 | 1.7 | 0.0 | 0.00 | 0.00 | 0.00 | 92 | 1014.7 |
| 20260906073039 | 67 | 360 | 1.7 | 0.0 | 0.00 | 0.00 | 0.00 | 94 | 1014.6 |
| 20260906071500 | 68 | 15 | 0.9 | 0.0 | 0.00 | 0.00 | 0.00 | 94 | 1014.6 |
| 20260906070039 | 68 | 16 | 0.0 | 0.0 | 0.00 | 0.00 | 0.00 | 95 | 1014.7 |
| 20260906064504 | 68 | 19 | 0.0 | 0.0 | 0.00 | 0.00 | 0.00 | 94 | 1014.5 |
| 20260906063029 | 68 | 5 | 0.0 | 0.0 | 0.00 | 0.00 | 0.00 | 93 | 1014.5 |
| 20260906061545 | 68 | 5 | 0.0 | 0.0 | 0.00 | 0.00 | 0.00 | 93 | 1014.5 |
| 20260906060011 | 69 | 13 | 0.9 | 0.0 | 0.00 | 0.00 | 0.00 | 92 | 1014.5 |
| 20260906054538 | 69 | 349 | 0.0 | 0.0 | 0.00 | 0.00 | 0.00 | 92 | 1014.3 |
| 20260906053006 | 70 | 355 | 0.0 | 0.0 | 0.00 | 0.00 | 0.00 | 92 | 1014.2 |
| 20260906051534 | 70 | 24 | 0.0 | 0.0 | 0.00 | 0.00 | 0.00 | 91 | 1014.0 |
| 20260906050002 | 70 | 355 | 0.0 | 0.0 | 0.00 | 0.00 | 0.00 | 91 | 1014.0 |
| 20260906044531 | 71 | 33 | 0.9 | 0.0 | 0.00 | 0.00 | 0.00 | 91 | 1013.8 |
| 20260906043050 | 71 | 5 | 0.9 | 0.0 | 0.00 | 0.00 | 0.13 | 91 | 1013.7 |
| 20260906041510 | 71 | 341 | 0.0 | 0.0 | 0.00 | 0.00 | 0.13 | 90 | 1013.6 |
| 20260906040039 | 71 | 5 | 0.0 | 0.0 | 0.00 | 0.00 | 0.13 | 90 | 1013.4 |
| 20260906034550 | 71 | 5 | 0.0 | 0.0 | 0.00 | 0.00 | 0.13 | 90 | 1013.4 |
| 20260906033021 | 71 | 360 | 0.0 | 0.0 | 0.00 | 0.00 | 0.13 | 90 | 1013.3 |
| 20260906031525 | 71 | 355 | 0.9 | 0.0 | 0.00 | 0.00 | 0.13 | 90 | 1013.3 |
| 20260906030046 | 71 | 22 | 0.9 | 0.0 | 0.00 | 0.00 | 0.13 | 90 | 1013.1 |
| 20260906024627 | 71 | 24 | 0.9 | 0.0 | 0.00 | 0.00 | 0.13 | 90 | 1013.1 |
| 20260906023027 | 72 | 323 | 0.9 | 0.0 | 0.00 | 0.00 | 0.13 | 89 | 1013.0 |
| 20260906021547 | 72 | 332 | 0.9 | 0.0 | 0.00 | 0.00 | 0.13 | 88 | 1012.9 |
| 20260906020101 | 72 | 321 | 0.9 | 0.0 | 0.00 | 0.00 | 0.13 | 89 | 1013.0 |
| 20260906014540 | 72 | 5 | 0.9 | 0.0 | 0.00 | 0.00 | 0.13 | 89 | 1012.8 |
| 20260906013057 | 73 | 34 | 1.7 | 0.0 | 0.00 | 0.00 | 0.13 | 89 | 1012.8 |
| 20260906011535 | 73 | 308 | 1.7 | 0.0 | 0.00 | 0.00 | 0.13 | 90 | 1012.5 |
| 20260906010045 | 73 | 16 | 0.0 | 0.0 | 0.00 | 0.00 | 0.13 | 89 | 1012.3 |
| 20260906004519 | 73 | 5 | 1.7 | 0.0 | 0.00 | 0.00 | 0.13 | 89 | 1012.0 |
| 20260906003048 | 74 | 35 | 1.7 | 0.0 | 0.00 | 0.00 | 0.13 | 88 | 1011.8 |
| 20260906001506 | 75 | 328 | 2.6 | 0.0 | 0.00 | 0.00 | 0.13 | 87 | 1011.8 |
| 20260906000036 | 76 | 342 | 1.7 | 0.0 | 0.00 | 0.00 | 0.13 | 86 | 1011.6 |
| 20260905234503 | 77 | 323 | 0.9 | 0.0 | 0.00 | 0.00 | 0.13 | 85 | 1011.5 |
| 20260905233032 | 78 | 19 | 0.9 | 0.0 | 0.00 | 0.00 | 0.13 | 84 | 1011.3 |
| 20260905231551 | 79 | 38 | 1.7 | 0.0 | 0.00 | 0.00 | 0.13 | 82 | 1011.3 |
| 20260905230018 | 81 | 121 | 1.7 | 0.0 | 0.00 | 0.00 | 0.13 | 80 | 1011.0 |
| 20260905224544 | 81 | 355 | 1.7 | 0.0 | 0.00 | 0.00 | 0.13 | 81 | 1010.7 |
| 20260905223009 | 81 | 281 | 0.9 | 0.0 | 0.00 | 0.00 | 0.13 | 83 | 1010.6 |
| 20260905221527 | 82 | 9 | 1.7 | 0.0 | 0.00 | 0.00 | 0.13 | 82 | 1010.4 |
| 20260905220055 | 82 | 34 | 2.6 | 0.0 | 0.00 | 0.00 | 0.13 | 82 | 1010.2 |
| 20260905214524 | 82 | 25 | 1.7 | 0.0 | 0.00 | 0.00 | 0.13 | 84 | 1010.1 |
| 20260905213045 | 82 | 22 | 0.9 | 0.0 | 0.00 | 0.00 | 0.13 | 85 | 1010.0 |
| 20260905211510 | 82 | 5 | 0.0 | 0.0 | 0.00 | 0.00 | 0.13 | 86 | 1010.1 |
| 20260905210038 | 80 | 5 | 0.0 | 0.0 | 0.00 | 0.00 | 0.13 | 90 | 1010.2 |
| 20260905204505 | 81 | 5 | 1.7 | 0.0 | 0.00 | 0.00 | 0.12 | 84 | 1010.4 |
| 20260905203023 | 86 | 37 | 0.9 | 0.0 | 0.00 | 0.00 | 0.00 | 74 | 1010.2 |
| 20260905201552 | 86 | 269 | 0.9 | 0.0 | 0.00 | 0.00 | 0.00 | 73 | 1010.2 |
| 20260905200019 | 87 | 9 | 0.9 | 0.0 | 0.00 | 0.00 | 0.00 | 78 | 1010.4 |
| 20260905194545 | 86 | 346 | 0.9 | 0.0 | 0.00 | 0.00 | 0.00 | 80 | 1010.5 |
| 20260905193004 | 85 | 38 | 0.0 | 0.0 | 0.00 | 0.00 | 0.00 | 78 | 1010.6 |
| 20260905191531 | 85 | 38 | 0.9 | 0.0 | 0.00 | 0.00 | 0.00 | 79 | 1010.8 |
| 20260905190055 | 83 | 248 | 0.9 | 0.0 | 0.00 | 0.00 | 0.00 | 83 | 1011.0 |
| 20260905184518 | 82 | 288 | 1.7 | 0.0 | 0.00 | 0.00 | 0.00 | 83 | 1011.1 |
| 20260905183046 | 82 | 226 | 0.9 | 0.0 | 0.00 | 0.00 | 0.00 | 83 | 1011.2 |
| 20260905181501 | 81 | 355 | 0.9 | 0.0 | 0.00 | 0.00 | 0.00 | 85 | 1011.4 |
| 20260905180019 | 81 | 246 | 0.0 | 0.0 | 0.00 | 0.00 | 0.00 | 82 | 1011.5 |
| 20260905174537 | 81 | 245 | 0.9 | 0.0 | 0.00 | 0.00 | 0.00 | 82 | 1011.4 |
| 20260905173005 | 81 | 273 | 1.7 | 0.0 | 0.00 | 0.00 | 0.00 | 84 | 1011.4 |
| 20260905171533 | 81 | 209 | 1.7 | 0.0 | 0.00 | 0.00 | 0.00 | 83 | 1011.6 |
| 20260905170057 | 79 | 195 | 1.7 | 0.0 | 0.00 | 0.00 | 0.00 | 83 | 1011.7 |
| 20260905164519 | 79 | 272 | 0.9 | 0.0 | 0.00 | 0.00 | 0.00 | 84 | 1012.0 |
| 20260905163046 | 78 | 267 | 0.9 | 0.0 | 0.00 | 0.00 | 0.00 | 85 | 1012.0 |
| 20260905161504 | 78 | 259 | 0.0 | 0.0 | 0.00 | 0.00 | 0.00 | 85 | 1012.2 |
| 20260905160042 | 77 | 259 | 0.9 | 0.0 | 0.00 | 0.00 | 0.00 | 85 | 1012.1 |
| 20260905154556 | 78 | 137 | 1.7 | 0.0 | 0.00 | 0.00 | 0.00 | 86 | 1012.0 |
| 20260905153015 | 76 | 263 | 1.7 | 0.0 | 0.00 | 0.00 | 0.00 | 86 | 1011.9 |
| 20260905151530 | 75 | 277 | 0.9 | 0.0 | 0.00 | 0.00 | 0.00 | 87 | 1011.8 |
| 20260905150008 | 75 | 213 | 0.9 | 0.0 | 0.00 | 0.00 | 0.00 | 88 | 1012.2 |
| 20260905144533 | 74 | 206 | 0.9 | 0.0 | 0.00 | 0.00 | 0.00 | 88 | 1012.0 |
| 20260905143054 | 74 | 228 | 0.9 | 0.0 | 0.00 | 0.00 | 0.00 | 88 | 1012.0 |
| 20260905141503 | 74 | 205 | 0.0 | 0.0 | 0.00 | 0.00 | 0.00 | 88 | 1011.8 |
| 20260905140030 | 74 | 246 | 1.7 | 0.0 | 0.00 | 0.00 | 0.00 | 89 | 1011.7 |
| 20260905134537 | 74 | 279 | 2.6 | 0.0 | 0.00 | 0.00 | 0.00 | 89 | 1011.2 |
| 20260905133041 | 73 | 194 | 1.7 | 0.0 | 0.00 | 0.00 | 0.00 | 90 | 1011.2 |
| 20260905131514 | 72 | 228 | 1.7 | 0.0 | 0.00 | 0.00 | 0.00 | 91 | 1011.0 |
| 20260905130028 | 72 | 263 | 0.9 | 0.0 | 0.00 | 0.00 | 0.00 | 91 | 1011.1 |
| 20260905124559 | 71 | 196 | 0.9 | 0.0 | 0.00 | 0.00 | 0.00 | 91 | 1011.0 |
| 20260905123026 | 71 | 257 | 0.9 | 0.0 | 0.00 | 0.00 | 0.00 | 92 | 1011.0 |
| 20260905121545 | 71 | 227 | 0.0 | 0.0 | 0.00 | 0.00 | 0.00 | 92 | 1011.2 |
| 20260905120012 | 71 | 238 | 0.9 | 0.0 | 0.00 | 0.00 | 0.00 | 92 | 1010.9 |
| 20260905114544 | 71 | 218 | 0.9 | 0.0 | 0.00 | 0.00 | 0.00 | 92 | 1010.8 |
| 20260905113009 | 71 | 242 | 0.0 | 0.0 | 0.00 | 0.00 | 0.00 | 92 | 1010.8 |
| 20260905111542 | 71 | 213 | 0.9 | 0.0 | 0.00 | 0.00 | 0.00 | 91 | 1010.5 |
| 20260905110001 | 72 | 298 | 0.9 | 0.0 | 0.00 | 0.00 | 0.00 | 91 | 1010.4 |
| 20260905104531 | 72 | 202 | 0.9 | 0.0 | 0.00 | 0.00 | 0.00 | 91 | 1010.3 |
| 20260905103049 | 72 | 201 | 0.9 | 0.0 | 0.00 | 0.00 | 0.00 | 91 | 1010.4 |
| 20260905101518 | 72 | 284 | 0.0 | 0.0 | 0.00 | 0.00 | 0.00 | 91 | 1010.4 |